createdAt,value
2017-03-26T05:37:08.812Z,18.2
2017-03-26T05:37:49.375Z,18.21
2017-03-26T05:38:29.956Z,18.18
2017-03-26T05:39:10.534Z,18.21
2017-03-26T05:39:51.114Z,18.26
2017-03-26T05:40:31.692Z,18.21
2017-03-26T05:41:12.257Z,18.14
2017-03-26T05:41:52.832Z,18.14
2017-03-26T05:42:33.412Z,18.12
2017-03-26T05:43:13.985Z,18.05
2017-03-26T05:43:54.568Z,18.1
2017-03-26T05:50:41.121Z,18
2017-03-26T05:51:21.694Z,17.93
2017-03-26T05:52:02.272Z,17.9
2017-03-26T05:52:42.836Z,17.95
2017-03-26T05:53:23.447Z,17.92
2017-03-26T05:54:03.980Z,17.86
2017-03-26T05:54:44.563Z,17.82
2017-03-26T05:55:25.122Z,17.75
2017-03-26T05:56:05.692Z,17.72
2017-03-26T05:56:46.274Z,17.59
2017-03-26T05:57:26.856Z,17.66
2017-03-26T05:58:07.443Z,17.62
2017-03-26T05:58:48.019Z,17.51
2017-03-26T05:59:28.597Z,17.56
2017-03-26T06:00:09.180Z,17.52
2017-03-26T06:00:49.758Z,17.52
2017-03-26T06:01:30.335Z,17.56
2017-03-26T06:02:10.913Z,17.62
2017-03-26T06:02:51.499Z,17.59
2017-03-26T06:03:32.071Z,17.59
2017-03-26T06:04:12.648Z,17.72
2017-03-26T06:04:53.238Z,17.72
2017-03-26T06:05:33.821Z,17.78
2017-03-26T06:06:14.399Z,17.81
2017-03-26T06:06:54.979Z,17.84
2017-03-26T06:07:35.552Z,17.86
2017-03-26T06:08:16.118Z,17.79
2017-03-26T06:10:54.949Z,17.93
2017-03-26T06:11:35.523Z,18.03
2017-03-26T06:12:16.110Z,18.07
2017-03-26T06:12:56.678Z,18.03
2017-03-26T06:13:37.264Z,18.1
2017-03-26T06:14:17.839Z,18.07
2017-03-26T06:14:58.411Z,18.1
2017-03-26T06:15:38.989Z,18.08
2017-03-26T06:16:19.559Z,18.18
2017-03-26T06:17:00.121Z,18.23
2017-03-26T06:17:40.696Z,18.23
2017-03-26T06:18:21.275Z,18.29
2017-03-26T06:19:01.860Z,18.32
2017-03-26T06:19:42.424Z,18.35
2017-03-26T06:20:23.002Z,18.29
2017-03-26T06:21:03.565Z,18.33
2017-03-26T06:21:44.143Z,18.41
2017-03-26T06:22:24.724Z,18.39
2017-03-26T06:23:05.302Z,18.47
2017-03-26T06:23:46.046Z,18.55
2017-03-26T06:24:26.633Z,18.41
2017-03-26T06:25:07.215Z,18.52
2017-03-26T06:25:47.788Z,18.58
2017-03-26T06:26:28.366Z,18.52
2017-03-26T06:27:08.940Z,18.6
2017-03-26T06:27:49.522Z,18.63
2017-03-26T06:28:30.108Z,18.67
2017-03-26T06:29:10.681Z,18.72
2017-03-26T06:29:51.266Z,18.81
2017-03-26T06:30:31.849Z,18.82
2017-03-26T06:31:12.419Z,19.02
2017-03-26T06:31:53.007Z,19
2017-03-26T06:32:33.598Z,19.16
2017-03-26T06:33:14.157Z,19.39
2017-03-26T06:33:54.740Z,19.63
2017-03-26T06:34:35.327Z,20.02
2017-03-26T06:35:15.904Z,20.48
2017-03-26T06:35:56.480Z,20.89
2017-03-26T06:36:37.064Z,21.16
2017-03-26T06:37:17.648Z,21.58
2017-03-26T06:37:58.234Z,21.99
2017-03-26T06:38:38.809Z,22.42
2017-03-26T06:39:19.383Z,22.65
2017-03-26T06:39:59.967Z,23.22
2017-03-26T06:40:40.605Z,23.54
2017-03-26T06:41:21.206Z,23.6
2017-03-26T06:42:01.935Z,24
2017-03-26T06:42:42.662Z,24.2
2017-03-26T06:43:23.511Z,24.45
2017-03-26T06:44:04.085Z,24.71
2017-03-26T06:44:45.061Z,24.93
2017-03-26T06:45:25.693Z,25.17
2017-03-26T06:46:06.409Z,25.38
2017-03-26T06:46:47.146Z,25.5
2017-03-26T06:47:28.305Z,25.75
2017-03-26T06:48:09.087Z,25.94
2017-03-26T06:48:49.965Z,26.12
2017-03-26T06:49:30.844Z,26.33
2017-03-26T06:50:11.877Z,26.58
2017-03-26T06:50:52.624Z,26.87
2017-03-26T06:51:33.426Z,26.89
2017-03-26T06:52:14.282Z,27.04
2017-03-26T06:52:54.884Z,27.32
2017-03-26T06:53:35.559Z,27.6
2017-03-26T06:54:16.148Z,27.74
2017-03-26T06:54:56.841Z,28
2017-03-26T06:55:37.622Z,28.11
2017-03-26T06:56:18.199Z,28.07
2017-03-26T06:56:58.770Z,28.17
2017-03-26T06:57:39.357Z,28.18
2017-03-26T06:58:19.940Z,28.29
2017-03-26T06:59:00.775Z,28.36
2017-03-26T06:59:41.733Z,28.34
2017-03-26T07:00:22.317Z,28.44
2017-03-26T07:01:02.899Z,28.46
2017-03-26T07:01:43.482Z,28.3
2017-03-26T07:02:24.344Z,28.33
2017-03-26T07:03:04.933Z,28.44
2017-03-26T07:03:45.513Z,28.62
2017-03-26T07:04:26.093Z,28.73
2017-03-26T07:05:06.684Z,28.77
2017-03-26T07:05:47.266Z,28.9
2017-03-26T07:06:28.619Z,29.06
2017-03-26T07:07:09.196Z,29.14
2017-03-26T07:07:50.044Z,29.19
2017-03-26T07:08:30.625Z,29.34
2017-03-26T07:09:11.199Z,29.43
2017-03-26T07:09:51.907Z,29.48
2017-03-26T07:10:32.484Z,29.58
2017-03-26T07:11:13.406Z,29.86
2017-03-26T07:11:54.201Z,29.92
2017-03-26T07:12:34.775Z,30.07
2017-03-26T07:13:15.360Z,30.05
2017-03-26T07:13:56.282Z,30.22
2017-03-26T07:14:36.885Z,30.23
2017-03-26T07:15:17.597Z,30.42
2017-03-26T07:15:58.510Z,30.43
2017-03-26T07:16:39.094Z,30.35
2017-03-26T07:17:19.758Z,30.24
2017-03-26T07:18:00.486Z,30.34
2017-03-26T07:18:41.069Z,30.35
2017-03-26T07:19:21.654Z,30.26
2017-03-26T07:20:02.237Z,30.34
2017-03-26T07:20:42.816Z,30.26
2017-03-26T07:21:23.598Z,30.38
2017-03-26T07:22:04.493Z,30.34
2017-03-26T07:22:45.081Z,30.34
2017-03-26T07:23:25.798Z,30.42
2017-03-26T07:24:06.629Z,30.47
2017-03-26T07:24:47.370Z,30.61
2017-03-26T07:25:27.948Z,30.83
2017-03-26T07:26:08.752Z,31.01
2017-03-26T07:26:49.471Z,31.01
2017-03-26T07:27:30.055Z,31.06
2017-03-26T07:28:11.260Z,31.16
2017-03-26T07:28:52.003Z,31.28
2017-03-26T07:29:32.839Z,31.44
2017-03-26T07:30:13.548Z,31.66
2017-03-26T07:30:54.324Z,31.86
2017-03-26T07:31:34.934Z,32.03
2017-03-26T07:32:15.803Z,32.35
2017-03-26T07:32:56.397Z,32.51
2017-03-26T07:33:37.393Z,32.65
2017-03-26T07:34:17.973Z,32.59
2017-03-26T07:34:58.549Z,32.63
2017-03-26T07:35:39.145Z,32.6
2017-03-26T07:36:19.701Z,32.63
2017-03-26T07:37:00.287Z,32.79
2017-03-26T07:37:40.878Z,32.89
2017-03-26T07:38:21.462Z,33
2017-03-26T07:39:02.714Z,33.03
2017-03-26T07:39:43.295Z,33
2017-03-26T07:40:24.182Z,32.97
2017-03-26T07:41:05.280Z,33.03
2017-03-26T07:41:46.083Z,32.96
2017-03-26T07:42:26.655Z,32.93
2017-03-26T07:43:07.260Z,33.06
2017-03-26T07:43:47.990Z,33.19
2017-03-26T07:44:28.563Z,33.28
2017-03-26T07:45:09.142Z,33.28
2017-03-26T07:45:49.715Z,33.44
2017-03-26T07:46:30.306Z,33.49
2017-03-26T07:47:10.885Z,33.5
2017-03-26T07:47:51.575Z,33.49
2017-03-26T07:48:32.279Z,33.54
2017-03-26T07:49:13.126Z,33.57
2017-03-26T07:49:54.031Z,33.76
2017-03-26T07:50:34.693Z,33.93
2017-03-26T07:51:15.274Z,33.93
2017-03-26T07:51:55.867Z,33.94
2017-03-26T07:52:36.444Z,33.88
2017-03-26T07:53:17.022Z,33.93
2017-03-26T07:53:57.603Z,33.76
2017-03-26T07:54:38.191Z,33.84
2017-03-26T07:55:18.766Z,33.82
2017-03-26T07:56:01.238Z,33.93
2017-03-26T07:56:41.664Z,33.93
2017-03-26T07:57:21.514Z,34.03
2017-03-26T07:58:02.263Z,34.05
2017-03-26T07:58:42.974Z,34.27
2017-03-26T07:59:23.564Z,34.39
2017-03-26T08:00:04.141Z,34.56
2017-03-26T08:00:44.724Z,34.54
2017-03-26T08:01:25.311Z,34.75
2017-03-26T08:02:05.893Z,34.81
2017-03-26T08:02:46.476Z,34.8
2017-03-26T08:03:27.056Z,34.96
2017-03-26T08:04:07.619Z,35.04
2017-03-26T08:04:48.198Z,35.1
2017-03-26T08:05:28.788Z,35.18
2017-03-26T08:06:09.369Z,35.09
2017-03-26T08:06:49.952Z,35.07
2017-03-26T08:07:30.531Z,35.09
2017-03-26T08:08:11.111Z,35.07
2017-03-26T08:08:51.689Z,35.15
2017-03-26T08:09:32.272Z,35.11
2017-03-26T08:10:12.852Z,35.11
2017-03-26T08:10:53.437Z,35.07
2017-03-26T08:11:34.021Z,35.03
2017-03-26T08:12:14.609Z,35.02
2017-03-26T08:12:55.353Z,35.03
2017-03-26T08:13:35.932Z,35.04
2017-03-26T08:14:16.509Z,35.16
2017-03-26T08:14:57.091Z,35.28
2017-03-26T08:15:37.678Z,35.29
2017-03-26T08:16:18.305Z,35.4
2017-03-26T08:16:58.840Z,35.45
2017-03-26T08:17:39.423Z,35.47
2017-03-26T08:18:20.050Z,35.6
2017-03-26T08:19:00.581Z,35.6
2017-03-26T08:19:41.161Z,35.66
2017-03-26T08:20:21.738Z,35.77
2017-03-26T08:21:02.312Z,35.82
2017-03-26T08:21:42.893Z,35.85
2017-03-26T08:22:23.468Z,35.94
2017-03-26T08:23:04.047Z,36.01
2017-03-26T08:23:45.202Z,36.12
2017-03-26T08:24:25.979Z,36.15
2017-03-26T08:25:06.560Z,36.13
2017-03-26T08:25:47.148Z,36.19
2017-03-26T08:26:27.719Z,36.19
2017-03-26T08:27:08.279Z,36.16
2017-03-26T08:27:48.870Z,36.16
2017-03-26T08:28:29.450Z,35.92
2017-03-26T08:29:10.026Z,35.93
2017-03-26T08:29:50.604Z,35.97
2017-03-26T08:30:31.188Z,35.87
2017-03-26T08:31:11.772Z,35.84
2017-03-26T08:31:52.351Z,35.82
2017-03-26T08:32:32.939Z,35.63
2017-03-26T08:33:13.514Z,35.71
2017-03-26T08:33:54.103Z,35.74
2017-03-26T08:34:34.695Z,35.71
2017-03-26T08:35:15.302Z,35.62
2017-03-26T08:35:55.884Z,35.63
2017-03-26T08:36:36.471Z,35.59
2017-03-26T08:37:17.051Z,35.71
2017-03-26T08:37:57.631Z,35.74
2017-03-26T08:38:38.229Z,35.84
2017-03-26T08:39:18.804Z,35.85
2017-03-26T08:39:59.390Z,35.85
2017-03-26T08:40:39.970Z,35.94
2017-03-26T08:41:20.562Z,35.96
2017-03-26T08:42:01.137Z,35.94
2017-03-26T08:42:41.712Z,35.81
2017-03-26T08:43:22.299Z,35.72
2017-03-26T08:44:02.866Z,35.7
2017-03-26T08:44:43.451Z,35.7
2017-03-26T08:45:24.029Z,35.75
2017-03-26T08:46:04.615Z,35.72
2017-03-26T08:46:45.197Z,35.53
2017-03-26T08:47:25.789Z,35.65
2017-03-26T08:48:06.372Z,35.5
2017-03-26T08:48:46.949Z,35.37
2017-03-26T08:49:27.531Z,35.38
2017-03-26T08:50:08.128Z,35.4
2017-03-26T08:50:48.684Z,35.34
2017-03-26T08:51:29.273Z,35.07
2017-03-26T08:52:09.854Z,34.87
2017-03-26T08:52:50.423Z,34.84
2017-03-26T08:53:31.002Z,34.27
2017-03-26T08:54:11.593Z,34.02
2017-03-26T08:54:52.167Z,33.72
2017-03-26T08:55:32.749Z,33.35
2017-03-26T08:56:13.327Z,33.22
2017-03-26T08:56:53.895Z,32.96
2017-03-26T08:57:34.477Z,32.75
2017-03-26T08:58:15.051Z,32.35
2017-03-26T08:58:55.639Z,32.13
2017-03-26T08:59:36.220Z,31.81
2017-03-26T09:00:16.798Z,31.63
2017-03-26T09:00:57.388Z,31.43
2017-03-26T09:01:37.973Z,31.16
2017-03-26T09:02:18.543Z,30.91
2017-03-26T09:02:59.135Z,30.7
2017-03-26T09:03:39.715Z,30.42
2017-03-26T09:04:20.295Z,30.19
2017-03-26T09:05:00.869Z,30.05
2017-03-26T09:05:41.457Z,29.76
2017-03-26T09:06:22.034Z,29.49
2017-03-26T09:07:02.618Z,29.31
2017-03-26T09:07:43.395Z,29.15
2017-03-26T09:08:24.020Z,28.9
2017-03-26T09:09:04.906Z,28.83
2017-03-26T09:09:45.746Z,28.59
2017-03-26T09:10:26.325Z,28.46
2017-03-26T09:11:07.215Z,28.31
2017-03-26T09:11:47.807Z,28.04
2017-03-26T09:12:28.408Z,27.88
2017-03-26T09:13:09.649Z,27.79
2017-03-26T09:13:50.391Z,27.65
2017-03-26T09:14:31.447Z,27.49
2017-03-26T09:15:12.016Z,27.37
2017-03-26T09:15:52.603Z,27.27
2017-03-26T09:16:33.756Z,27.09
2017-03-26T09:17:14.795Z,26.94
2017-03-26T09:17:55.385Z,26.88
2017-03-26T09:18:35.958Z,26.73
2017-03-26T09:19:16.940Z,26.57
2017-03-26T09:19:57.541Z,26.5
2017-03-26T09:20:38.122Z,26.3
2017-03-26T09:21:19.455Z,26.25
2017-03-26T09:22:00.788Z,26.1
2017-03-26T09:22:41.768Z,25.95
2017-03-26T09:23:22.572Z,25.95
2017-03-26T09:24:03.330Z,25.75
2017-03-26T09:24:44.467Z,25.72
2017-03-26T09:25:25.296Z,25.58
2017-03-26T09:26:06.052Z,25.47
2017-03-26T09:26:46.784Z,25.51
2017-03-26T09:27:27.400Z,25.38
2017-03-26T09:28:08.304Z,25.24
2017-03-26T09:28:48.979Z,25.15
2017-03-26T09:29:30.433Z,25.18
2017-03-26T09:30:11.014Z,25.06
2017-03-26T09:30:51.809Z,25.03
2017-03-26T09:31:32.397Z,25.06
2017-03-26T09:32:12.964Z,24.95
2017-03-26T09:32:53.533Z,24.96
2017-03-26T09:33:34.343Z,24.91
2017-03-26T09:34:15.280Z,24.83
2017-03-26T09:34:55.860Z,24.81
2017-03-26T09:35:36.439Z,24.73
2017-03-26T09:36:17.285Z,24.69
2017-03-26T09:36:58.239Z,24.78
2017-03-26T09:37:38.832Z,24.67
2017-03-26T09:38:19.411Z,24.67
2017-03-26T09:38:59.989Z,24.67
2017-03-26T09:39:40.735Z,24.67
2017-03-26T09:40:21.321Z,24.67
2017-03-26T09:41:02.104Z,24.62
2017-03-26T09:41:42.917Z,24.68
2017-03-26T09:42:23.631Z,24.64
2017-03-26T09:43:04.482Z,24.67
2017-03-26T09:43:45.166Z,24.57
2017-03-26T09:44:26.345Z,24.58
2017-03-26T09:45:07.535Z,24.53
2017-03-26T09:45:48.299Z,24.57
2017-03-26T09:46:28.880Z,24.57
2017-03-26T09:47:09.461Z,24.64
2017-03-26T09:47:50.084Z,24.57
2017-03-26T09:48:30.664Z,24.53
2017-03-26T09:49:11.263Z,24.55
2017-03-26T09:49:51.836Z,24.58
2017-03-26T09:50:32.427Z,24.6
2017-03-26T09:51:13.009Z,24.68
2017-03-26T09:51:53.578Z,24.77
2017-03-26T09:52:34.166Z,24.62
2017-03-26T09:53:14.735Z,24.61
2017-03-26T09:53:55.324Z,24.71
2017-03-26T09:54:35.909Z,24.67
2017-03-26T09:55:16.488Z,24.68
2017-03-26T09:55:57.074Z,24.52
2017-03-26T09:56:37.657Z,24.53
2017-03-26T09:57:18.241Z,24.53
2017-03-26T09:57:58.811Z,24.52
2017-03-26T09:58:39.400Z,24.42
2017-03-26T09:59:19.974Z,24.4
2017-03-26T10:00:00.559Z,24.42
2017-03-26T10:00:41.139Z,24.39
2017-03-26T10:01:21.723Z,24.3
2017-03-26T10:02:02.307Z,24.24
2017-03-26T10:02:42.889Z,24.09
2017-03-26T10:03:23.464Z,24.08
2017-03-26T10:04:04.048Z,23.94
2017-03-26T10:04:44.635Z,23.85
2017-03-26T10:05:25.220Z,23.84
2017-03-26T10:06:05.800Z,23.72
2017-03-26T10:06:46.375Z,23.66
2017-03-26T10:07:26.966Z,23.55
2017-03-26T10:08:07.550Z,23.51
2017-03-26T10:08:48.147Z,23.5
2017-03-26T10:09:28.726Z,23.46
2017-03-26T10:10:09.300Z,23.46
2017-03-26T10:10:49.880Z,23.47
2017-03-26T10:11:30.457Z,23.35
2017-03-26T10:12:11.041Z,23.38
2017-03-26T10:12:51.627Z,23.23
2017-03-26T10:13:32.209Z,23.28
2017-03-26T10:14:12.782Z,23.12
2017-03-26T10:14:53.359Z,23.07
2017-03-26T10:15:33.946Z,22.95
2017-03-26T10:16:14.528Z,22.86
2017-03-26T10:16:55.117Z,22.86
2017-03-26T10:17:35.694Z,22.72
2017-03-26T10:18:16.268Z,22.72
2017-03-26T10:18:56.848Z,22.61
2017-03-26T10:19:37.433Z,22.6
2017-03-26T10:20:18.017Z,22.47
2017-03-26T10:20:58.610Z,22.51
2017-03-26T10:21:39.183Z,22.49
2017-03-26T10:22:19.764Z,22.45
2017-03-26T10:23:00.352Z,22.33
2017-03-26T10:23:40.936Z,22.4
2017-03-26T10:24:21.499Z,22.35
2017-03-26T10:25:02.076Z,22.3
2017-03-26T10:25:42.653Z,22.24
2017-03-26T10:26:23.235Z,22.25
2017-03-26T10:27:03.820Z,22.2
2017-03-26T10:27:44.394Z,22.17
2017-03-26T10:28:24.980Z,22.07
2017-03-26T10:29:05.570Z,22.03
2017-03-26T10:29:46.156Z,21.96
2017-03-26T10:30:26.735Z,21.99
2017-03-26T10:31:07.618Z,21.86
2017-03-26T10:31:48.436Z,21.88
2017-03-26T10:32:29.439Z,21.9
2017-03-26T10:33:10.151Z,21.86
2017-03-26T10:33:51.144Z,21.8
2017-03-26T10:34:31.884Z,21.71
2017-03-26T10:35:12.469Z,21.67
2017-03-26T10:35:53.053Z,21.72
2017-03-26T10:36:34.036Z,21.59
2017-03-26T10:37:14.671Z,21.59
2017-03-26T10:37:55.249Z,21.47
2017-03-26T10:38:35.840Z,21.54
2017-03-26T10:39:16.414Z,21.46
2017-03-26T10:39:56.981Z,21.47
2017-03-26T10:40:37.548Z,21.47
2017-03-26T10:41:18.120Z,21.4
2017-03-26T10:41:58.696Z,21.28
2017-03-26T10:42:39.277Z,21.37
2017-03-26T10:43:19.861Z,21.25
2017-03-26T10:44:00.449Z,21.19
2017-03-26T10:44:41.035Z,21.12
2017-03-26T10:45:21.624Z,21.13
2017-03-26T10:46:02.201Z,21.16
2017-03-26T10:46:42.844Z,21.17
2017-03-26T10:47:23.431Z,21.22
2017-03-26T10:48:04.008Z,21.21
2017-03-26T10:48:44.593Z,21.17
2017-03-26T10:49:25.167Z,21.17
2017-03-26T10:50:05.750Z,21.16
2017-03-26T10:50:46.337Z,21.1
2017-03-26T10:51:26.921Z,21.17
2017-03-26T10:52:07.495Z,21.12
2017-03-26T10:52:48.075Z,21.14
2017-03-26T10:53:28.663Z,21.13
2017-03-26T10:54:09.238Z,21.19
2017-03-26T10:54:49.819Z,21.19
2017-03-26T10:55:30.398Z,21.14
2017-03-26T10:56:10.991Z,21.09
2017-03-26T10:56:51.580Z,21.13
2017-03-26T10:57:32.168Z,21.12
2017-03-26T10:58:12.804Z,20.97
2017-03-26T10:58:53.346Z,21.09
2017-03-26T10:59:33.927Z,21.1
2017-03-26T11:00:14.517Z,21.03
2017-03-26T11:00:55.131Z,21.03
2017-03-26T11:01:35.670Z,21.07
2017-03-26T11:02:16.339Z,20.99
2017-03-26T11:02:56.974Z,20.98
2017-03-26T11:03:37.987Z,20.95
2017-03-26T11:04:18.767Z,21.03
2017-03-26T11:04:59.661Z,20.92
2017-03-26T11:05:40.425Z,20.92
2017-03-26T11:06:21.322Z,20.88
2017-03-26T11:07:02.169Z,20.91
2017-03-26T11:07:42.817Z,20.92
2017-03-26T11:08:23.400Z,20.85
2017-03-26T11:09:03.993Z,20.88
2017-03-26T11:09:44.578Z,20.84
2017-03-26T11:10:25.347Z,20.79
2017-03-26T11:11:05.936Z,20.72
2017-03-26T11:11:46.518Z,20.76
2017-03-26T11:12:27.378Z,20.67
2017-03-26T11:13:08.083Z,20.77
2017-03-26T11:13:48.665Z,20.74
2017-03-26T11:14:29.526Z,20.69
2017-03-26T11:15:10.106Z,20.64
2017-03-26T11:15:50.841Z,20.7
2017-03-26T11:16:31.529Z,20.69
2017-03-26T11:17:12.205Z,20.62
2017-03-26T11:17:53.256Z,20.67
2017-03-26T11:18:34.026Z,20.59
2017-03-26T11:19:14.770Z,20.64
2017-03-26T11:19:55.357Z,20.59
2017-03-26T11:20:35.938Z,20.58
2017-03-26T11:21:16.577Z,20.52
2017-03-26T11:21:57.476Z,20.59
2017-03-26T11:22:38.267Z,20.64
2017-03-26T11:23:19.178Z,20.62
2017-03-26T11:24:00.003Z,20.55
2017-03-26T11:24:40.580Z,20.64
2017-03-26T11:25:21.173Z,20.61
2017-03-26T11:26:01.757Z,20.55
2017-03-26T11:26:42.336Z,20.67
2017-03-26T11:27:22.965Z,20.67
2017-03-26T11:28:03.672Z,20.67
2017-03-26T11:28:44.252Z,20.67
2017-03-26T11:29:24.840Z,20.76
2017-03-26T11:30:05.414Z,20.66
2017-03-26T11:30:46.441Z,20.66
2017-03-26T11:32:44.419Z,20.69
2017-03-26T11:33:25.532Z,20.64
2017-03-26T11:34:06.105Z,20.62
2017-03-26T11:34:46.685Z,20.55
2017-03-26T11:35:27.379Z,20.59
2017-03-26T11:36:07.935Z,20.59
2017-03-26T11:36:48.860Z,20.52
2017-03-26T11:37:29.692Z,20.55
2017-03-26T11:38:10.676Z,20.54
2017-03-26T11:38:51.455Z,20.39
2017-03-26T11:39:32.024Z,20.5
2017-03-26T11:40:13.435Z,20.5
2017-03-26T11:40:54.624Z,20.52
2017-03-26T11:41:35.634Z,20.48
2017-03-26T11:42:16.280Z,20.51
2017-03-26T11:42:57.189Z,20.48
2017-03-26T11:43:37.759Z,20.48
2017-03-26T11:44:19.521Z,20.48
2017-03-26T11:45:00.865Z,20.41
2017-03-26T11:45:41.453Z,20.39
2017-03-26T11:46:22.591Z,20.41
2017-03-26T11:47:03.779Z,20.43
2017-03-26T11:47:44.361Z,20.32
2017-03-26T11:48:24.944Z,20.38
2017-03-26T11:49:05.593Z,20.35
2017-03-26T11:49:46.168Z,20.21
2017-03-26T11:50:26.945Z,20.23
2017-03-26T11:51:07.512Z,20.26
2017-03-26T11:51:48.564Z,20.28
2017-03-26T11:52:29.266Z,20.23
2017-03-26T11:53:09.831Z,20.23
2017-03-26T11:53:50.613Z,20.17
2017-03-26T11:54:31.395Z,20.21
2017-03-26T11:55:12.122Z,20.1
2017-03-26T11:55:52.748Z,20.1
2017-03-26T11:56:33.675Z,20.18
2017-03-26T11:57:14.245Z,20.26
2017-03-26T11:57:55.082Z,20.17
2017-03-26T11:58:35.822Z,20.26
2017-03-26T11:59:16.761Z,20.23
2017-03-26T11:59:57.596Z,20.2
2017-03-26T12:00:38.165Z,20.28
2017-03-26T12:01:18.746Z,20.24
2017-03-26T12:01:59.330Z,20.32
2017-03-26T12:02:39.915Z,20.32
2017-03-26T12:03:20.567Z,20.21
2017-03-26T12:04:01.252Z,20.31
2017-03-26T12:04:41.835Z,20.33
2017-03-26T12:05:22.413Z,20.35
2017-03-26T12:06:02.989Z,20.32
2017-03-26T12:06:43.643Z,20.39
2017-03-26T12:07:24.212Z,20.32
2017-03-26T12:08:04.779Z,20.29
2017-03-26T12:08:45.366Z,20.21
2017-03-26T12:09:26.071Z,20.29
2017-03-26T12:10:06.652Z,20.2
2017-03-26T12:10:47.232Z,20.26
2017-03-26T12:11:27.812Z,20.26
2017-03-26T12:12:08.388Z,20.21
2017-03-26T12:12:49.436Z,20.23
2017-03-26T12:13:30.271Z,20.23
2017-03-26T12:14:11.375Z,20.17
2017-03-26T12:14:52.458Z,20.21
2017-03-26T12:15:33.053Z,20.21
2017-03-26T12:16:13.709Z,20.18
2017-03-26T12:16:54.299Z,20.23
2017-03-26T12:17:35.291Z,20.26
2017-03-26T12:18:16.313Z,20.17
2017-03-26T12:18:56.893Z,20.23
2017-03-26T12:19:37.480Z,20.1
2017-03-26T12:20:18.299Z,20.17
2017-03-26T12:20:59.093Z,20.16
2017-03-26T12:21:39.671Z,20.21
2017-03-26T12:22:20.414Z,20.18
2017-03-26T12:23:01.010Z,20.13
2017-03-26T12:23:41.595Z,20.17
2017-03-26T12:24:22.457Z,20.14
2017-03-26T12:25:03.082Z,20.06
2017-03-26T12:25:43.712Z,20.13
2017-03-26T12:26:24.295Z,20.1
2017-03-26T12:27:05.057Z,20.14
2017-03-26T12:27:45.680Z,20.17
2017-03-26T12:28:26.341Z,20.13
2017-03-26T12:29:06.979Z,20.18
2017-03-26T12:29:47.574Z,20.26
2017-03-26T12:30:28.316Z,20.21
2017-03-26T12:31:09.079Z,20.23
2017-03-26T12:31:49.658Z,20.24
2017-03-26T12:32:30.375Z,20.2
2017-03-26T12:33:10.957Z,20.17
2017-03-26T12:33:51.541Z,20.16
2017-03-26T12:34:32.188Z,20.14
2017-03-26T12:35:12.880Z,20.11
2017-03-26T12:35:53.633Z,20.23
2017-03-26T12:36:34.209Z,20.2
2017-03-26T12:37:14.782Z,20.17
2017-03-26T12:37:55.357Z,20.2
2017-03-26T12:38:35.940Z,20.18
2017-03-26T12:39:16.530Z,20.18
2017-03-26T12:39:57.394Z,20.2
2017-03-26T12:40:38.132Z,20.2
2017-03-26T12:41:19.024Z,20.23
2017-03-26T12:41:59.612Z,20.18
2017-03-26T12:42:40.182Z,20.24
2017-03-26T12:43:20.746Z,20.24
2017-03-26T12:44:01.323Z,20.31
2017-03-26T12:44:41.911Z,20.32
2017-03-26T12:45:22.505Z,20.31
2017-03-26T12:46:03.087Z,20.31
2017-03-26T12:46:43.661Z,20.33
2017-03-26T12:47:24.269Z,20.24
2017-03-26T12:48:04.851Z,20.26
2017-03-26T12:48:45.429Z,20.26
2017-03-26T12:49:26.001Z,20.23
2017-03-26T12:50:06.577Z,20.21
2017-03-26T12:50:47.161Z,20.24
2017-03-26T12:51:27.741Z,20.26
2017-03-26T12:52:08.325Z,20.31
2017-03-26T12:52:48.918Z,20.26
2017-03-26T12:53:29.495Z,20.35
2017-03-26T12:54:10.070Z,20.24
2017-03-26T12:54:50.653Z,20.38
2017-03-26T12:55:31.224Z,20.31
2017-03-26T12:56:11.803Z,20.28
2017-03-26T12:56:52.385Z,20.17
2017-03-26T12:57:32.964Z,20.21
2017-03-26T12:58:13.531Z,20.26
2017-03-26T12:58:54.118Z,20.16
2017-03-26T12:59:34.702Z,20.16
2017-03-26T13:00:15.272Z,20.18
2017-03-26T13:00:55.856Z,20.21
2017-03-26T13:01:36.435Z,20.2
2017-03-26T13:02:17.016Z,20.23
2017-03-26T13:02:57.600Z,20.17
2017-03-26T13:03:38.172Z,20.2
2017-03-26T13:04:18.753Z,20.21
2017-03-26T13:04:59.331Z,20.17
2017-03-26T13:05:39.913Z,20.17
2017-03-26T13:06:20.498Z,20.08
2017-03-26T13:07:01.074Z,20.05
2017-03-26T13:07:41.649Z,20.13
2017-03-26T13:08:22.230Z,20.02
2017-03-26T13:09:02.816Z,20.02
2017-03-26T13:09:43.395Z,20.1
2017-03-26T13:10:23.970Z,20.03
2017-03-26T13:11:04.550Z,20.16
2017-03-26T13:11:45.130Z,20.1
2017-03-26T13:12:25.702Z,20.1
2017-03-26T13:13:06.278Z,20.06
2017-03-26T13:13:46.863Z,20.03
2017-03-26T13:14:27.437Z,20.01
2017-03-26T13:15:08.012Z,20.13
2017-03-26T13:15:48.602Z,20.02
2017-03-26T13:16:29.178Z,19.94
2017-03-26T13:17:09.758Z,19.95
2017-03-26T13:17:50.342Z,19.92
2017-03-26T13:18:30.920Z,19.88
2017-03-26T13:19:11.510Z,19.83
2017-03-26T13:19:52.080Z,19.83
2017-03-26T13:20:32.659Z,19.8
2017-03-26T13:21:13.275Z,19.76
2017-03-26T13:21:53.803Z,19.78
2017-03-26T13:22:34.379Z,19.81
2017-03-26T13:23:15.504Z,19.96
2017-03-26T13:23:56.082Z,19.87
2017-03-26T13:24:36.672Z,19.91
2017-03-26T13:25:17.259Z,19.92
2017-03-26T13:25:57.844Z,19.95
2017-03-26T13:26:38.404Z,20.02
2017-03-26T13:27:18.978Z,20.05
2017-03-26T13:27:59.564Z,20.08
2017-03-26T13:28:40.143Z,20.03
2017-03-26T13:29:20.725Z,20.1
2017-03-26T13:30:01.312Z,20.11
2017-03-26T13:30:41.877Z,20.17
2017-03-26T13:31:22.456Z,20.14
2017-03-26T13:32:03.035Z,20.05
2017-03-26T13:32:43.625Z,19.98
2017-03-26T13:33:24.200Z,19.94
2017-03-26T13:34:04.778Z,19.92
2017-03-26T13:34:45.362Z,19.86
2017-03-26T13:35:25.944Z,19.78
2017-03-26T13:36:06.525Z,19.77
2017-03-26T13:36:47.110Z,19.69
2017-03-26T13:37:27.689Z,19.69
2017-03-26T13:38:08.273Z,19.71
2017-03-26T13:38:48.853Z,19.63
2017-03-26T13:39:29.421Z,19.66
2017-03-26T13:40:10.014Z,19.51
2017-03-26T13:40:50.586Z,19.47
2017-03-26T13:41:31.165Z,19.54
2017-03-26T13:42:11.745Z,19.55
2017-03-26T13:42:52.322Z,19.58
2017-03-26T13:43:32.913Z,19.59
2017-03-26T13:44:13.504Z,19.51
2017-03-26T13:44:54.076Z,19.54
2017-03-26T13:45:34.635Z,19.54
2017-03-26T13:46:15.223Z,19.62
2017-03-26T13:46:55.808Z,19.55
2017-03-26T13:47:36.387Z,19.62
2017-03-26T13:48:16.968Z,19.59
2017-03-26T13:48:57.542Z,19.63
2017-03-26T13:49:38.114Z,19.63
2017-03-26T13:50:18.714Z,19.66
2017-03-26T13:50:59.278Z,19.68
2017-03-26T13:51:39.873Z,19.65
2017-03-26T13:52:20.444Z,19.68
2017-03-26T13:53:01.025Z,19.62
2017-03-26T13:53:41.612Z,19.61
2017-03-26T13:54:22.191Z,19.62
2017-03-26T13:55:02.763Z,19.63
2017-03-26T13:55:43.349Z,19.63
2017-03-26T13:56:23.924Z,19.66
2017-03-26T13:57:04.499Z,19.65
2017-03-26T13:57:45.070Z,19.61
2017-03-26T13:58:25.658Z,19.68
2017-03-26T13:59:06.242Z,19.68
2017-03-26T13:59:46.819Z,19.61
2017-03-26T14:00:27.430Z,19.58
2017-03-26T14:01:07.977Z,19.51
2017-03-26T14:01:48.552Z,19.48
2017-03-26T14:02:29.138Z,19.5
2017-03-26T14:03:09.721Z,19.54
2017-03-26T14:03:50.300Z,19.51
2017-03-26T17:36:50.600Z,21.96
2017-03-26T17:37:31.220Z,21.86
2017-03-26T17:38:11.790Z,21.83
2017-03-26T17:38:52.345Z,21.86
2017-03-26T17:39:32.915Z,21.79
2017-03-26T17:40:13.488Z,21.84
2017-03-26T17:40:54.038Z,21.82
2017-03-26T17:41:34.603Z,21.8
2017-03-26T17:42:15.143Z,21.79
2017-03-26T17:42:55.707Z,21.8
2017-03-26T17:43:36.281Z,21.79
2017-03-26T17:44:16.853Z,21.79
2017-03-26T17:44:57.434Z,21.74
2017-03-26T17:45:38.007Z,21.71
2017-03-26T17:46:18.570Z,21.68
2017-03-26T17:46:59.151Z,21.69
2017-03-26T17:47:39.759Z,21.67
2017-03-26T17:48:20.277Z,21.67
2017-03-26T17:49:00.857Z,21.74
2017-03-26T17:49:41.424Z,21.65
2017-03-26T17:50:22.027Z,21.68
2017-03-26T17:51:02.583Z,21.74
2017-03-26T17:51:43.174Z,21.65
2017-03-26T17:52:23.752Z,21.68
2017-03-26T17:53:04.351Z,21.61
2017-03-26T17:53:44.921Z,21.69
2017-03-26T17:54:25.499Z,21.59
2017-03-26T17:55:06.084Z,21.65
2017-03-26T17:55:46.657Z,21.62
2017-03-26T17:56:27.243Z,21.62
2017-03-26T17:57:07.819Z,21.58
2017-03-26T17:57:48.400Z,21.52
2017-03-26T17:58:28.986Z,21.47
2017-03-26T17:59:09.573Z,21.5
2017-03-26T17:59:50.119Z,21.52
2017-03-26T18:00:30.699Z,21.47
2017-03-26T18:01:11.278Z,21.44
2017-03-26T18:01:51.851Z,21.49
2017-03-26T18:02:32.433Z,21.49
2017-03-26T18:03:13.012Z,21.46
2017-03-26T18:03:53.594Z,21.35